CPA339 ZPLJ-ZPPP
Flight info
| Callsign | CPA339 |
|---|---|
| Flight time | 0h 16m |
| Altitude | 12000 |
| Route | DAL W162 BUBSU W146 GULOT GUL01A MP2 |
| Aircraft | A21N/M-V/N |
Departure
| Time | 2026-05-04 11:47 |
|---|---|
| Airport | Lijiang Sanyi International Airport (ZPLJ) |
Arrival
| Time | 2026-05-04 12:03 |
|---|---|
| Airport | Kunming Changshui International Airport (ZPPP) |
| Time | Latitude | Longitude | Altitude | Speed | Heading |
|---|---|---|---|---|---|
| 2026-05-04 11:43 | 26.68960 | 100.24902 | 7390 ft | 0 kts | 197° |
| 2026-05-04 11:46 | 26.68957 | 100.24900 | 7390 ft | 9 kts | 197° |
| 2026-05-04 11:46 | 26.68657 | 100.24796 | 7391 ft | 78 kts | 197° |
| 2026-05-04 11:46 | 26.67935 | 100.24557 | 7392 ft | 137 kts | 198° |
| 2026-05-04 11:47 | 26.66843 | 100.24184 | 7413 ft | 184 kts | 196° |
| 2026-05-04 11:47 | 26.65608 | 100.23759 | 7954 ft | 185 kts | 196° |
| 2026-05-04 11:47 | 26.64389 | 100.23346 | 8634 ft | 185 kts | 196° |
| 2026-05-04 11:47 | 26.63108 | 100.22913 | 9099 ft | 200 kts | 196° |
| 2026-05-04 11:48 | 26.61697 | 100.22445 | 9402 ft | 225 kts | 195° |
| 2026-05-04 11:48 | 26.60128 | 100.21932 | 9998 ft | 242 kts | 196° |
| 2026-05-04 11:48 | 26.58473 | 100.21365 | 10638 ft | 259 kts | 197° |
| 2026-05-04 11:48 | 26.56707 | 100.20754 | 11257 ft | 276 kts | 197° |
| 2026-05-04 11:49 | 26.54790 | 100.20138 | 11860 ft | 295 kts | 191° |
| 2026-05-04 11:49 | 26.52656 | 100.20098 | 12236 ft | 320 kts | 173° |
| 2026-05-04 11:49 | 26.50347 | 100.20484 | 12294 ft | 355 kts | 170° |
| 2026-05-04 11:49 | 26.27625 | 100.24339 | 12280 ft | 389 kts | 173° |
| 2026-05-04 11:50 | 26.04501 | 100.26953 | 12167 ft | 401 kts | 175° |
| 2026-05-04 11:50 | 25.76204 | 100.30595 | 12287 ft | 387 kts | 172° |
| 2026-05-04 11:50 | 25.73525 | 100.31026 | 12274 ft | 389 kts | 173° |
| 2026-05-04 11:50 | 25.70817 | 100.31431 | 12262 ft | 389 kts | 173° |
| 2026-05-04 11:51 | 25.68149 | 100.32091 | 12239 ft | 398 kts | 159° |
| 2026-05-04 11:51 | 25.65849 | 100.33792 | 12249 ft | 406 kts | 137° |
| 2026-05-04 11:51 | 25.53351 | 100.49466 | 12284 ft | 408 kts | 133° |
| 2026-05-04 11:51 | 25.22150 | 100.86255 | 12307 ft | 409 kts | 136° |
| 2026-05-04 11:52 | 24.90937 | 101.23083 | 12182 ft | 412 kts | 135° |
| 2026-05-04 11:52 | 24.63725 | 101.54774 | 12142 ft | 413 kts | 136° |
| 2026-05-04 11:52 | 24.62007 | 101.57296 | 12126 ft | 421 kts | 120° |
| 2026-05-04 11:52 | 24.61213 | 101.60410 | 12146 ft | 426 kts | 96° |
| 2026-05-04 11:53 | 24.61468 | 101.63641 | 12175 ft | 429 kts | 80° |
| 2026-05-04 11:53 | 24.62060 | 101.66854 | 12179 ft | 429 kts | 80° |
| 2026-05-04 11:53 | 24.63252 | 101.74738 | 12178 ft | 429 kts | 84° |
| 2026-05-04 11:53 | 24.63485 | 101.78003 | 12176 ft | 428 kts | 89° |
| 2026-05-04 11:55 | 24.73369 | 102.85494 | 12218 ft | 426 kts | 26° |
| 2026-05-04 11:55 | 24.76001 | 102.86982 | 12216 ft | 427 kts | 27° |
| 2026-05-04 11:56 | 24.78604 | 102.88594 | 12225 ft | 425 kts | 30° |
| 2026-05-04 11:56 | 24.81102 | 102.90314 | 12230 ft | 425 kts | 32° |
| 2026-05-04 11:56 | 24.98040 | 103.03160 | 12275 ft | 424 kts | 35° |
| 2026-05-04 11:56 | 25.28778 | 103.28299 | 12250 ft | 422 kts | 32° |
| 2026-05-04 11:57 | 25.31444 | 103.29456 | 12218 ft | 400 kts | 9° |
| 2026-05-04 11:57 | 25.34149 | 103.29358 | 12130 ft | 379 kts | 344° |
| 2026-05-04 11:57 | 25.36437 | 103.28125 | 11886 ft | 362 kts | 318° |
| 2026-05-04 11:57 | 25.37957 | 103.25976 | 11637 ft | 346 kts | 291° |
| 2026-05-04 11:58 | 25.38590 | 103.20190 | 11121 ft | 332 kts | 270° |
| 2026-05-04 11:58 | 25.38527 | 103.17725 | 11081 ft | 315 kts | 262° |
| 2026-05-04 11:58 | 25.37878 | 103.15501 | 11068 ft | 294 kts | 236° |
| 2026-05-04 11:58 | 25.36505 | 103.13942 | 11072 ft | 274 kts | 210° |
| 2026-05-04 11:59 | 25.33207 | 103.11784 | 11110 ft | 259 kts | 214° |
| 2026-05-04 11:59 | 25.31791 | 103.10567 | 11112 ft | 259 kts | 218° |
| 2026-05-04 11:59 | 25.30391 | 103.09288 | 11054 ft | 259 kts | 218° |
| 2026-05-04 11:59 | 25.28985 | 103.08020 | 10807 ft | 260 kts | 218° |
| 2026-05-04 12:00 | 25.27572 | 103.06773 | 10470 ft | 259 kts | 217° |
| 2026-05-04 12:00 | 25.26167 | 103.05550 | 10136 ft | 257 kts | 216° |
| 2026-05-04 12:00 | 25.24769 | 103.04338 | 9806 ft | 257 kts | 216° |
| 2026-05-04 12:00 | 25.23349 | 103.03108 | 9469 ft | 256 kts | 216° |
| 2026-05-04 12:01 | 25.21945 | 103.01891 | 9137 ft | 255 kts | 217° |
| 2026-05-04 12:01 | 25.20560 | 103.00689 | 8810 ft | 254 kts | 217° |
| 2026-05-04 12:02 | 25.13055 | 102.94164 | 7033 ft | 202 kts | 218° |
| 2026-05-04 12:03 | 25.11999 | 102.93245 | 6913 ft | 184 kts | 219° |
| 2026-05-04 12:03 | 25.11198 | 102.92595 | 6912 ft | 80 kts | 193° |
| 2026-05-04 12:03 | 25.11017 | 102.92600 | 6912 ft | 2 kts | 123° |
| 2026-05-04 12:03 | 25.11021 | 102.92628 | 6912 ft | 6 kts | 53° |
| 2026-05-04 12:04 | 25.11057 | 102.92664 | 6912 ft | 7 kts | 37° |
| 2026-05-04 12:04 | 25.11436 | 102.92994 | 6912 ft | 0 kts | 39° |
| 2026-05-04 12:04 | 25.11439 | 102.92998 | 6912 ft | 5 kts | 56° |
| 2026-05-04 12:04 | 25.11426 | 102.93057 | 6912 ft | 9 kts | 123° |
| 2026-05-04 12:05 | 25.11388 | 102.93113 | 6912 ft | 9 kts | 127° |
| 2026-05-04 12:05 | 25.11350 | 102.93169 | 6912 ft | 9 kts | 126° |
| 2026-05-04 12:05 | 25.11312 | 102.93226 | 6912 ft | 9 kts | 127° |
| 2026-05-04 12:05 | 25.11241 | 102.93317 | 6912 ft | 9 kts | 130° |
| 2026-05-04 12:06 | 25.11200 | 102.93372 | 6912 ft | 9 kts | 128° |
| 2026-05-04 12:06 | 25.11160 | 102.93429 | 6912 ft | 9 kts | 127° |
| 2026-05-04 12:06 | 25.11120 | 102.93486 | 6912 ft | 9 kts | 128° |
| 2026-05-04 12:06 | 25.11078 | 102.93544 | 6912 ft | 9 kts | 128° |
| 2026-05-04 12:07 | 25.10982 | 102.93680 | 6912 ft | 9 kts | 128° |
| 2026-05-04 12:07 | 25.10954 | 102.93718 | 6912 ft | 0 kts | 129° |
| 2026-05-04 12:07 | 25.10955 | 102.93744 | 6912 ft | 6 kts | 54° |
| 2026-05-04 12:07 | 25.11015 | 102.93798 | 6912 ft | 1 kts | 38° |
| 2026-05-04 12:08 | 25.11004 | 102.93790 | 6912 ft | 2 kts | 38° |
| 2026-05-04 12:08 | 25.11003 | 102.93788 | 6912 ft | 0 kts | 38° |